sensor_id;sensor_type;location;lat;lon;timestamp;pressure;altitude;pressure_sealevel;temperature;humidity
16481;BME280;44634;54.110;12.138;2022-10-31T00:00:45;101920.06;;;14.36;100.00
16481;BME280;44634;54.110;12.138;2022-10-31T00:03:13;101922.44;;;14.09;100.00
16481;BME280;44634;54.110;12.138;2022-10-31T00:05:42;101924.63;;;14.24;100.00
16481;BME280;44634;54.110;12.138;2022-10-31T00:08:11;101933.47;;;14.04;100.00
16481;BME280;44634;54.110;12.138;2022-10-31T00:10:41;101938.19;;;14.00;100.00
16481;BME280;44634;54.110;12.138;2022-10-31T00:13:10;101947.78;;;14.13;100.00
16481;BME280;44634;54.110;12.138;2022-10-31T00:15:39;101945.84;;;14.15;100.00
16481;BME280;44634;54.110;12.138;2022-10-31T00:18:08;101966.25;;;14.05;100.00
16481;BME280;44634;54.110;12.138;2022-10-31T00:20:36;102007.88;;;13.62;100.00
16481;BME280;44634;54.110;12.138;2022-10-31T00:23:05;102024.03;;;13.59;100.00
16481;BME280;44634;54.110;12.138;2022-10-31T00:25:35;102024.91;;;13.60;100.00
16481;BME280;44634;54.110;12.138;2022-10-31T00:28:06;102022.97;;;13.94;100.00
16481;BME280;44634;54.110;12.138;2022-10-31T00:30:34;102021.38;;;14.23;100.00
16481;BME280;44634;54.110;12.138;2022-10-31T00:33:03;102005.19;;;14.15;100.00
16481;BME280;44634;54.110;12.138;2022-10-31T00:35:31;101996.47;;;14.04;100.00
16481;BME280;44634;54.110;12.138;2022-10-31T00:37:59;101991.31;;;14.12;100.00
16481;BME280;44634;54.110;12.138;2022-10-31T00:40:27;101979.91;;;14.21;100.00
16481;BME280;44634;54.110;12.138;2022-10-31T00:42:55;101970.63;;;14.36;100.00
16481;BME280;44634;54.110;12.138;2022-10-31T00:45:24;101963.47;;;14.16;100.00
16481;BME280;44634;54.110;12.138;2022-10-31T00:47:52;101948.38;;;14.16;100.00
16481;BME280;44634;54.110;12.138;2022-10-31T00:50:20;101976.84;;;13.84;100.00
16481;BME280;44634;54.110;12.138;2022-10-31T00:52:48;101995.88;;;13.68;100.00
16481;BME280;44634;54.110;12.138;2022-10-31T00:55:15;102003.25;;;13.76;100.00
16481;BME280;44634;54.110;12.138;2022-10-31T00:57:46;102007.88;;;13.94;100.00
16481;BME280;44634;54.110;12.138;2022-10-31T01:00:14;101994.81;;;13.91;100.00
16481;BME280;44634;54.110;12.138;2022-10-31T01:02:44;101990.03;;;14.06;100.00
16481;BME280;44634;54.110;12.138;2022-10-31T01:05:13;101984.81;;;13.84;100.00
16481;BME280;44634;54.110;12.138;2022-10-31T01:07:41;101990.84;;;13.86;100.00
16481;BME280;44634;54.110;12.138;2022-10-31T01:10:10;102002.31;;;13.65;100.00
16481;BME280;44634;54.110;12.138;2022-10-31T01:12:39;101996.25;;;13.75;100.00
16481;BME280;44634;54.110;12.138;2022-10-31T01:15:08;102015.16;;;13.49;100.00
16481;BME280;44634;54.110;12.138;2022-10-31T01:17:36;102027.16;;;13.76;100.00
16481;BME280;44634;54.110;12.138;2022-10-31T01:20:08;102041.06;;;13.68;100.00
16481;BME280;44634;54.110;12.138;2022-10-31T01:22:37;102031.81;;;13.51;100.00
16481;BME280;44634;54.110;12.138;2022-10-31T01:25:06;102014.88;;;13.95;100.00
16481;BME280;44634;54.110;12.138;2022-10-31T01:27:35;102014.72;;;13.76;100.00
16481;BME280;44634;54.110;12.138;2022-10-31T01:30:03;102041.31;;;13.65;100.00
16481;BME280;44634;54.110;12.138;2022-10-31T01:32:31;102062.16;;;13.26;100.00
16481;BME280;44634;54.110;12.138;2022-10-31T01:34:59;102084.63;;;13.33;100.00
16481;BME280;44634;54.110;12.138;2022-10-31T01:37:30;102095.09;;;13.01;100.00
16481;BME280;44634;54.110;12.138;2022-10-31T01:39:58;102110.47;;;13.31;100.00
16481;BME280;44634;54.110;12.138;2022-10-31T01:42:26;102113.34;;;13.62;100.00
16481;BME280;44634;54.110;12.138;2022-10-31T01:44:57;102102.47;;;13.65;100.00
16481;BME280;44634;54.110;12.138;2022-10-31T01:47:39;102109.84;;;13.61;100.00
16481;BME280;44634;54.110;12.138;2022-10-31T01:50:20;102124.44;;;13.11;100.00
16481;BME280;44634;54.110;12.138;2022-10-31T01:52:52;102136.88;;;13.55;100.00
16481;BME280;44634;54.110;12.138;2022-10-31T01:55:23;102144.97;;;13.65;100.00
16481;BME280;44634;54.110;12.138;2022-10-31T01:57:58;102161.25;;;13.04;100.00
16481;BME280;44634;54.110;12.138;2022-10-31T02:00:29;102163.47;;;13.33;100.00
16481;BME280;44634;54.110;12.138;2022-10-31T02:02:57;102164.44;;;13.32;100.00
16481;BME280;44634;54.110;12.138;2022-10-31T02:05:28;102176.75;;;13.55;100.00
16481;BME280;44634;54.110;12.138;2022-10-31T02:08:01;102173.00;;;13.58;100.00
16481;BME280;44634;54.110;12.138;2022-10-31T02:10:32;102179.53;;;13.54;100.00
16481;BME280;44634;54.110;12.138;2022-10-31T02:13:02;102175.31;;;13.62;100.00
16481;BME280;44634;54.110;12.138;2022-10-31T02:15:31;102165.41;;;13.64;100.00
16481;BME280;44634;54.110;12.138;2022-10-31T02:17:59;102149.44;;;13.76;100.00
16481;BME280;44634;54.110;12.138;2022-10-31T02:20:32;102147.16;;;13.60;100.00
16481;BME280;44634;54.110;12.138;2022-10-31T02:23:36;102147.97;;;13.72;100.00
16481;BME280;44634;54.110;12.138;2022-10-31T02:26:29;102153.69;;;13.33;100.00
16481;BME280;44634;54.110;12.138;2022-10-31T02:32:02;102166.03;;;13.46;100.00
16481;BME280;44634;54.110;12.138;2022-10-31T02:34:37;102157.44;;;13.31;100.00
16481;BME280;44634;54.110;12.138;2022-10-31T02:37:14;102161.31;;;13.38;100.00
16481;BME280;44634;54.110;12.138;2022-10-31T02:39:51;102156.97;;;13.48;100.00
16481;BME280;44634;54.110;12.138;2022-10-31T02:42:26;102158.03;;;13.34;100.00
16481;BME280;44634;54.110;12.138;2022-10-31T02:45:00;102161.31;;;13.49;100.00
16481;BME280;44634;54.110;12.138;2022-10-31T02:47:35;102148.34;;;13.45;100.00
16481;BME280;44634;54.110;12.138;2022-10-31T02:50:07;102140.38;;;13.45;100.00
16481;BME280;44634;54.110;12.138;2022-10-31T02:52:36;102147.03;;;13.39;100.00
16481;BME280;44634;54.110;12.138;2022-10-31T02:55:12;102137.72;;;13.45;100.00
16481;BME280;44634;54.110;12.138;2022-10-31T02:57:41;102130.97;;;13.29;100.00
16481;BME280;44634;54.110;12.138;2022-10-31T03:00:12;102129.78;;;13.33;100.00
16481;BME280;44634;54.110;12.138;2022-10-31T03:02:52;102128.09;;;13.21;100.00
16481;BME280;44634;54.110;12.138;2022-10-31T03:05:33;102142.19;;;13.10;100.00
16481;BME280;44634;54.110;12.138;2022-10-31T03:08:12;102147.88;;;13.28;100.00
16481;BME280;44634;54.110;12.138;2022-10-31T03:10:44;102143.50;;;13.16;100.00
16481;BME280;44634;54.110;12.138;2022-10-31T03:13:23;102133.59;;;13.07;100.00
16481;BME280;44634;54.110;12.138;2022-10-31T03:16:04;102137.59;;;13.13;100.00
16481;BME280;44634;54.110;12.138;2022-10-31T03:18:38;102139.28;;;13.02;100.00
16481;BME280;44634;54.110;12.138;2022-10-31T03:21:11;102146.06;;;13.29;100.00
16481;BME280;44634;54.110;12.138;2022-10-31T03:23:43;102147.03;;;13.17;100.00
16481;BME280;44634;54.110;12.138;2022-10-31T03:26:13;102152.44;;;13.04;100.00
16481;BME280;44634;54.110;12.138;2022-10-31T03:28:45;102148.19;;;12.90;100.00
16481;BME280;44634;54.110;12.138;2022-10-31T03:31:16;102151.22;;;13.08;100.00
16481;BME280;44634;54.110;12.138;2022-10-31T03:33:47;102138.69;;;13.10;100.00
16481;BME280;44634;54.110;12.138;2022-10-31T03:36:17;102148.19;;;12.90;100.00
16481;BME280;44634;54.110;12.138;2022-10-31T03:38:46;102157.13;;;12.89;100.00
16481;BME280;44634;54.110;12.138;2022-10-31T03:41:17;102164.44;;;12.86;100.00
16481;BME280;44634;54.110;12.138;2022-10-31T03:43:57;102171.66;;;12.72;100.00
16481;BME280;44634;54.110;12.138;2022-10-31T03:46:28;102160.25;;;12.94;100.00
16481;BME280;44634;54.110;12.138;2022-10-31T03:48:58;102153.38;;;12.92;100.00
16481;BME280;44634;54.110;12.138;2022-10-31T03:51:31;102156.81;;;12.35;100.00
16481;BME280;44634;54.110;12.138;2022-10-31T03:54:04;102164.00;;;12.57;100.00
16481;BME280;44634;54.110;12.138;2022-10-31T03:56:38;102175.50;;;12.68;100.00
16481;BME280;44634;54.110;12.138;2022-10-31T03:59:12;102172.53;;;12.84;100.00
16481;BME280;44634;54.110;12.138;2022-10-31T04:01:46;102162.13;;;12.70;100.00
16481;BME280;44634;54.110;12.138;2022-10-31T04:04:18;102164.44;;;12.74;100.00
16481;BME280;44634;54.110;12.138;2022-10-31T04:06:47;102156.13;;;12.79;100.00
16481;BME280;44634;54.110;12.138;2022-10-31T04:09:17;102156.44;;;12.63;100.00
16481;BME280;44634;54.110;12.138;2022-10-31T04:11:50;102160.66;;;12.66;100.00
16481;BME280;44634;54.110;12.138;2022-10-31T04:14:20;102161.34;;;12.92;100.00
16481;BME280;44634;54.110;12.138;2022-10-31T04:16:48;102155.53;;;12.75;100.00
16481;BME280;44634;54.110;12.138;2022-10-31T04:19:18;102154.75;;;12.62;100.00
16481;BME280;44634;54.110;12.138;2022-10-31T04:21:45;102156.50;;;12.74;100.00
16481;BME280;44634;54.110;12.138;2022-10-31T04:24:13;102159.38;;;12.82;100.00
16481;BME280;44634;54.110;12.138;2022-10-31T04:26:41;102159.34;;;12.71;100.00
16481;BME280;44634;54.110;12.138;2022-10-31T04:29:09;102143.94;;;12.76;100.00
16481;BME280;44634;54.110;12.138;2022-10-31T04:31:36;102149.69;;;12.70;100.00
16481;BME280;44634;54.110;12.138;2022-10-31T04:34:04;102142.69;;;12.69;100.00
16481;BME280;44634;54.110;12.138;2022-10-31T04:36:35;102148.72;;;12.60;100.00
16481;BME280;44634;54.110;12.138;2022-10-31T04:39:03;102146.84;;;12.85;100.00
16481;BME280;44634;54.110;12.138;2022-10-31T04:41:30;102144.09;;;12.51;100.00
16481;BME280;44634;54.110;12.138;2022-10-31T04:43:58;102146.34;;;12.79;100.00
16481;BME280;44634;54.110;12.138;2022-10-31T04:46:26;102130.63;;;12.65;100.00
16481;BME280;44634;54.110;12.138;2022-10-31T04:48:54;102135.22;;;12.63;100.00
16481;BME280;44634;54.110;12.138;2022-10-31T04:51:22;102127.47;;;12.49;100.00
16481;BME280;44634;54.110;12.138;2022-10-31T04:53:51;102141.72;;;12.59;100.00
16481;BME280;44634;54.110;12.138;2022-10-31T04:56:19;102150.13;;;12.18;100.00
16481;BME280;44634;54.110;12.138;2022-10-31T04:58:46;102148.06;;;12.45;100.00
16481;BME280;44634;54.110;12.138;2022-10-31T05:01:14;102151.97;;;12.29;100.00
16481;BME280;44634;54.110;12.138;2022-10-31T05:03:42;102150.59;;;12.47;100.00
16481;BME280;44634;54.110;12.138;2022-10-31T05:06:10;102151.81;;;12.54;100.00
16481;BME280;44634;54.110;12.138;2022-10-31T05:08:37;102148.94;;;12.57;100.00
16481;BME280;44634;54.110;12.138;2022-10-31T05:11:07;102153.50;;;12.55;100.00
16481;BME280;44634;54.110;12.138;2022-10-31T05:13:34;102156.81;;;12.70;100.00
16481;BME280;44634;54.110;12.138;2022-10-31T05:16:02;102159.47;;;12.59;100.00
16481;BME280;44634;54.110;12.138;2022-10-31T05:18:30;102155.31;;;13.12;100.00
16481;BME280;44634;54.110;12.138;2022-10-31T05:20:58;102143.34;;;12.84;100.00
16481;BME280;44634;54.110;12.138;2022-10-31T05:23:26;102145.69;;;13.11;100.00
16481;BME280;44634;54.110;12.138;2022-10-31T05:25:54;102119.59;;;13.05;100.00
16481;BME280;44634;54.110;12.138;2022-10-31T05:28:23;102123.47;;;12.90;100.00
16481;BME280;44634;54.110;12.138;2022-10-31T05:30:51;102128.47;;;12.59;100.00
16481;BME280;44634;54.110;12.138;2022-10-31T05:33:18;102120.81;;;12.90;100.00
16481;BME280;44634;54.110;12.138;2022-10-31T05:35:46;102123.31;;;12.80;100.00
16481;BME280;44634;54.110;12.138;2022-10-31T05:38:14;102092.72;;;13.21;100.00
16481;BME280;44634;54.110;12.138;2022-10-31T05:40:42;102087.16;;;13.24;100.00
16481;BME280;44634;54.110;12.138;2022-10-31T05:43:10;102079.66;;;13.18;100.00
16481;BME280;44634;54.110;12.138;2022-10-31T05:45:39;102066.38;;;13.06;100.00
16481;BME280;44634;54.110;12.138;2022-10-31T05:48:08;102062.28;;;13.25;100.00
16481;BME280;44634;54.110;12.138;2022-10-31T05:50:35;102056.13;;;13.02;100.00
16481;BME280;44634;54.110;12.138;2022-10-31T05:53:05;102060.00;;;13.20;100.00
16481;BME280;44634;54.110;12.138;2022-10-31T05:55:33;102070.84;;;13.17;100.00
16481;BME280;44634;54.110;12.138;2022-10-31T05:58:01;102058.91;;;12.89;100.00
16481;BME280;44634;54.110;12.138;2022-10-31T06:00:29;102086.72;;;12.72;100.00
16481;BME280;44634;54.110;12.138;2022-10-31T06:02:59;102110.97;;;12.68;100.00
16481;BME280;44634;54.110;12.138;2022-10-31T06:05:28;102123.22;;;12.93;100.00
16481;BME280;44634;54.110;12.138;2022-10-31T06:07:56;102107.44;;;13.36;100.00
16481;BME280;44634;54.110;12.138;2022-10-31T06:10:24;102077.84;;;13.07;100.00
16481;BME280;44634;54.110;12.138;2022-10-31T06:12:55;102106.06;;;12.97;100.00
16481;BME280;44634;54.110;12.138;2022-10-31T06:15:22;102122.16;;;13.29;100.00
16481;BME280;44634;54.110;12.138;2022-10-31T06:18:03;102095.78;;;13.70;100.00
16481;BME280;44634;54.110;12.138;2022-10-31T06:20:31;102092.09;;;13.17;100.00
16481;BME280;44634;54.110;12.138;2022-10-31T06:22:59;102119.88;;;13.35;100.00
16481;BME280;44634;54.110;12.138;2022-10-31T06:25:37;102142.31;;;13.65;100.00
16481;BME280;44634;54.110;12.138;2022-10-31T06:28:04;102124.97;;;13.93;100.00
16481;BME280;44634;54.110;12.138;2022-10-31T06:30:32;102108.63;;;13.43;100.00
16481;BME280;44634;54.110;12.138;2022-10-31T06:33:04;102119.50;;;13.29;100.00
16481;BME280;44634;54.110;12.138;2022-10-31T06:35:33;102130.63;;;13.34;100.00
16481;BME280;44634;54.110;12.138;2022-10-31T06:38:00;102145.66;;;12.89;100.00
16481;BME280;44634;54.110;12.138;2022-10-31T06:40:29;102164.31;;;13.33;100.00
16481;BME280;44634;54.110;12.138;2022-10-31T06:42:57;102169.94;;;13.06;100.00
16481;BME280;44634;54.110;12.138;2022-10-31T06:45:25;102183.25;;;13.18;100.00
16481;BME280;44634;54.110;12.138;2022-10-31T06:47:54;102199.25;;;13.16;100.00
16481;BME280;44634;54.110;12.138;2022-10-31T06:50:43;102191.09;;;13.30;100.00
16481;BME280;44634;54.110;12.138;2022-10-31T06:53:11;102200.66;;;13.55;100.00
16481;BME280;44634;54.110;12.138;2022-10-31T06:55:40;102192.47;;;13.47;100.00
16481;BME280;44634;54.110;12.138;2022-10-31T06:58:10;102195.84;;;13.60;100.00
16481;BME280;44634;54.110;12.138;2022-10-31T07:00:38;102206.09;;;13.54;100.00
16481;BME280;44634;54.110;12.138;2022-10-31T07:03:09;102206.81;;;13.78;100.00
16481;BME280;44634;54.110;12.138;2022-10-31T07:05:38;102222.06;;;13.65;100.00
16481;BME280;44634;54.110;12.138;2022-10-31T07:08:10;102219.38;;;14.42;100.00
16481;BME280;44634;54.110;12.138;2022-10-31T07:10:39;102218.91;;;13.93;100.00
16481;BME280;44634;54.110;12.138;2022-10-31T07:13:10;102199.31;;;14.49;100.00
16481;BME280;44634;54.110;12.138;2022-10-31T07:15:40;102191.47;;;14.36;100.00
16481;BME280;44634;54.110;12.138;2022-10-31T07:18:10;102193.91;;;14.92;100.00
16481;BME280;44634;54.110;12.138;2022-10-31T07:20:38;102201.00;;;15.33;100.00
16481;BME280;44634;54.110;12.138;2022-10-31T07:23:08;102207.13;;;15.55;100.00
16481;BME280;44634;54.110;12.138;2022-10-31T07:25:37;102210.22;;;15.81;100.00
16481;BME280;44634;54.110;12.138;2022-10-31T07:28:07;102209.38;;;15.90;100.00
16481;BME280;44634;54.110;12.138;2022-10-31T07:30:36;102199.13;;;15.85;100.00
16481;BME280;44634;54.110;12.138;2022-10-31T07:33:04;102203.88;;;16.22;100.00
16481;BME280;44634;54.110;12.138;2022-10-31T07:35:32;102217.88;;;16.14;100.00
16481;BME280;44634;54.110;12.138;2022-10-31T07:38:09;102197.97;;;16.28;100.00
16481;BME280;44634;54.110;12.138;2022-10-31T07:40:38;102196.56;;;16.43;100.00
16481;BME280;44634;54.110;12.138;2022-10-31T07:43:06;102228.56;;;16.33;100.00
16481;BME280;44634;54.110;12.138;2022-10-31T07:45:40;102230.56;;;16.41;100.00
16481;BME280;44634;54.110;12.138;2022-10-31T07:48:08;102236.94;;;16.69;100.00
16481;BME280;44634;54.110;12.138;2022-10-31T07:50:36;102225.81;;;16.74;100.00
16481;BME280;44634;54.110;12.138;2022-10-31T07:53:05;102224.41;;;16.89;100.00
16481;BME280;44634;54.110;12.138;2022-10-31T07:55:37;102228.22;;;16.96;100.00
16481;BME280;44634;54.110;12.138;2022-10-31T07:58:07;102215.25;;;17.01;100.00
16481;BME280;44634;54.110;12.138;2022-10-31T08:00:38;102217.03;;;17.20;100.00
16481;BME280;44634;54.110;12.138;2022-10-31T08:03:08;102211.69;;;17.20;100.00
16481;BME280;44634;54.110;12.138;2022-10-31T08:05:37;102216.50;;;17.07;100.00
16481;BME280;44634;54.110;12.138;2022-10-31T08:08:08;102231.78;;;17.34;100.00
16481;BME280;44634;54.110;12.138;2022-10-31T08:10:37;102229.06;;;17.53;100.00
16481;BME280;44634;54.110;12.138;2022-10-31T08:13:08;102226.75;;;17.68;100.00
16481;BME280;44634;54.110;12.138;2022-10-31T08:15:36;102212.06;;;17.35;100.00
16481;BME280;44634;54.110;12.138;2022-10-31T08:18:09;102213.34;;;17.31;100.00
16481;BME280;44634;54.110;12.138;2022-10-31T08:20:38;102230.22;;;17.41;100.00
16481;BME280;44634;54.110;12.138;2022-10-31T08:23:09;102237.69;;;17.84;100.00
16481;BME280;44634;54.110;12.138;2022-10-31T08:25:39;102223.81;;;17.98;100.00
16481;BME280;44634;54.110;12.138;2022-10-31T08:28:09;102213.59;;;17.84;100.00
16481;BME280;44634;54.110;12.138;2022-10-31T08:30:37;102216.66;;;17.89;100.00
16481;BME280;44634;54.110;12.138;2022-10-31T08:33:09;102221.81;;;18.00;100.00
16481;BME280;44634;54.110;12.138;2022-10-31T08:35:37;102219.84;;;18.02;100.00
16481;BME280;44634;54.110;12.138;2022-10-31T08:38:05;102224.28;;;18.11;100.00
16481;BME280;44634;54.110;12.138;2022-10-31T08:40:34;102215.34;;;17.66;100.00
16481;BME280;44634;54.110;12.138;2022-10-31T08:43:05;102243.53;;;17.70;100.00
16481;BME280;44634;54.110;12.138;2022-10-31T08:45:36;102243.13;;;17.92;100.00
16481;BME280;44634;54.110;12.138;2022-10-31T08:48:05;102248.47;;;18.20;100.00
16481;BME280;44634;54.110;12.138;2022-10-31T08:50:35;102237.47;;;18.23;100.00
16481;BME280;44634;54.110;12.138;2022-10-31T08:53:04;102229.34;;;18.14;100.00
16481;BME280;44634;54.110;12.138;2022-10-31T08:55:36;102241.56;;;17.99;100.00
16481;BME280;44634;54.110;12.138;2022-10-31T08:58:11;102235.31;;;18.08;100.00
16481;BME280;44634;54.110;12.138;2022-10-31T09:00:40;102252.44;;;17.88;100.00
16481;BME280;44634;54.110;12.138;2022-10-31T09:03:11;102264.28;;;17.86;100.00
16481;BME280;44634;54.110;12.138;2022-10-31T09:05:39;102285.72;;;17.76;100.00
16481;BME280;44634;54.110;12.138;2022-10-31T09:08:08;102302.78;;;17.75;100.00
16481;BME280;44634;54.110;12.138;2022-10-31T09:10:42;102304.19;;;17.60;100.00
16481;BME280;44634;54.110;12.138;2022-10-31T09:13:13;102327.31;;;17.32;100.00
16481;BME280;44634;54.110;12.138;2022-10-31T09:15:43;102347.72;;;17.42;100.00
16481;BME280;44634;54.110;12.138;2022-10-31T09:18:12;102350.94;;;17.46;100.00
16481;BME280;44634;54.110;12.138;2022-10-31T09:20:41;102353.31;;;17.59;100.00
16481;BME280;44634;54.110;12.138;2022-10-31T09:23:10;102342.50;;;17.70;100.00
16481;BME280;44634;54.110;12.138;2022-10-31T09:25:39;102348.25;;;17.65;100.00
16481;BME280;44634;54.110;12.138;2022-10-31T09:28:17;102350.38;;;17.81;100.00
16481;BME280;44634;54.110;12.138;2022-10-31T09:30:46;102337.53;;;17.84;100.00
16481;BME280;44634;54.110;12.138;2022-10-31T09:33:14;102345.44;;;17.57;100.00
16481;BME280;44634;54.110;12.138;2022-10-31T09:35:42;102336.97;;;17.62;100.00
16481;BME280;44634;54.110;12.138;2022-10-31T09:38:11;102357.28;;;17.54;100.00
16481;BME280;44634;54.110;12.138;2022-10-31T09:40:42;102362.53;;;17.08;100.00
16481;BME280;44634;54.110;12.138;2022-10-31T09:43:22;102377.97;;;17.72;100.00
16481;BME280;44634;54.110;12.138;2022-10-31T09:45:57;102384.47;;;17.31;100.00
16481;BME280;44634;54.110;12.138;2022-10-31T09:48:39;102379.97;;;17.50;100.00
16481;BME280;44634;54.110;12.138;2022-10-31T09:51:13;102366.69;;;17.49;100.00
16481;BME280;44634;54.110;12.138;2022-10-31T09:53:46;102363.66;;;18.00;100.00
16481;BME280;44634;54.110;12.138;2022-10-31T09:56:19;102340.97;;;18.04;100.00
16481;BME280;44634;54.110;12.138;2022-10-31T09:58:51;102352.28;;;17.98;100.00
16481;BME280;44634;54.110;12.138;2022-10-31T10:01:39;102334.00;;;17.84;100.00
16481;BME280;44634;54.110;12.138;2022-10-31T10:04:24;102331.56;;;18.00;100.00
16481;BME280;44634;54.110;12.138;2022-10-31T10:06:54;102331.94;;;18.05;100.00
16481;BME280;44634;54.110;12.138;2022-10-31T10:09:25;102300.47;;;18.17;100.00
16481;BME280;44634;54.110;12.138;2022-10-31T10:12:02;102313.38;;;18.31;100.00
16481;BME280;44634;54.110;12.138;2022-10-31T10:14:49;102299.63;;;18.44;100.00
16481;BME280;44634;54.110;12.138;2022-10-31T10:17:30;102285.19;;;18.09;100.00
16481;BME280;44634;54.110;12.138;2022-10-31T10:20:14;102300.88;;;18.22;100.00
16481;BME280;44634;54.110;12.138;2022-10-31T10:22:52;102308.00;;;18.31;100.00
16481;BME280;44634;54.110;12.138;2022-10-31T10:25:21;102269.53;;;18.50;100.00
16481;BME280;44634;54.110;12.138;2022-10-31T10:27:58;102273.53;;;18.46;100.00
16481;BME280;44634;54.110;12.138;2022-10-31T10:30:34;102283.88;;;18.13;100.00
16481;BME280;44634;54.110;12.138;2022-10-31T10:33:09;102283.00;;;18.68;100.00
16481;BME280;44634;54.110;12.138;2022-10-31T10:35:41;102255.09;;;18.61;100.00
16481;BME280;44634;54.110;12.138;2022-10-31T10:38:16;102259.28;;;18.00;100.00
16481;BME280;44634;54.110;12.138;2022-10-31T10:40:45;102287.09;;;18.17;100.00
16481;BME280;44634;54.110;12.138;2022-10-31T10:43:22;102288.16;;;17.50;100.00
16481;BME280;44634;54.110;12.138;2022-10-31T10:46:14;102333.56;;;17.89;100.00
16481;BME280;44634;54.110;12.138;2022-10-31T10:49:09;102324.44;;;17.81;100.00
16481;BME280;44634;54.110;12.138;2022-10-31T10:51:43;102327.78;;;17.08;100.00
16481;BME280;44634;54.110;12.138;2022-10-31T10:54:42;102364.75;;;17.41;100.00
16481;BME280;44634;54.110;12.138;2022-10-31T10:57:29;102362.63;;;17.54;100.00
16481;BME280;44634;54.110;12.138;2022-10-31T11:00:02;102358.28;;;17.15;100.00
16481;BME280;44634;54.110;12.138;2022-10-31T11:02:32;102349.84;;;17.29;100.00
16481;BME280;44634;54.110;12.138;2022-10-31T11:05:01;102340.69;;;17.41;100.00
16481;BME280;44634;54.110;12.138;2022-10-31T11:07:37;102331.84;;;17.41;100.00
16481;BME280;44634;54.110;12.138;2022-10-31T11:10:11;102340.00;;;17.39;100.00
16481;BME280;44634;54.110;12.138;2022-10-31T11:12:42;102328.47;;;17.19;100.00
16481;BME280;44634;54.110;12.138;2022-10-31T11:15:19;102307.19;;;17.47;100.00
16481;BME280;44634;54.110;12.138;2022-10-31T11:17:51;102302.88;;;17.27;100.00
16481;BME280;44634;54.110;12.138;2022-10-31T11:20:26;102333.81;;;17.39;100.00
16481;BME280;44634;54.110;12.138;2022-10-31T11:23:15;102322.84;;;17.22;100.00
16481;BME280;44634;54.110;12.138;2022-10-31T11:25:51;102327.56;;;17.67;100.00
16481;BME280;44634;54.110;12.138;2022-10-31T11:28:20;102324.78;;;17.20;100.00
16481;BME280;44634;54.110;12.138;2022-10-31T11:30:50;102339.88;;;16.92;100.00
16481;BME280;44634;54.110;12.138;2022-10-31T11:33:27;102359.25;;;16.75;100.00
16481;BME280;44634;54.110;12.138;2022-10-31T11:35:57;102333.69;;;17.11;100.00
16481;BME280;44634;54.110;12.138;2022-10-31T11:38:30;102330.44;;;17.27;100.00
16481;BME280;44634;54.110;12.138;2022-10-31T11:41:07;102323.22;;;17.57;100.00
16481;BME280;44634;54.110;12.138;2022-10-31T11:43:38;102337.31;;;17.30;100.00
16481;BME280;44634;54.110;12.138;2022-10-31T11:46:10;102335.50;;;17.40;100.00
16481;BME280;44634;54.110;12.138;2022-10-31T11:48:46;102335.78;;;17.17;100.00
16481;BME280;44634;54.110;12.138;2022-10-31T11:51:20;102346.03;;;16.83;100.00
16481;BME280;44634;54.110;12.138;2022-10-31T11:53:51;102351.28;;;16.94;100.00
16481;BME280;44634;54.110;12.138;2022-10-31T11:56:26;102346.94;;;16.63;100.00
16481;BME280;44634;54.110;12.138;2022-10-31T11:58:57;102343.91;;;16.77;100.00
16481;BME280;44634;54.110;12.138;2022-10-31T12:01:28;102338.44;;;16.69;100.00
16481;BME280;44634;54.110;12.138;2022-10-31T12:04:07;102340.00;;;17.20;100.00
16481;BME280;44634;54.110;12.138;2022-10-31T12:06:37;102332.38;;;16.77;100.00
16481;BME280;44634;54.110;12.138;2022-10-31T12:09:18;102325.09;;;17.27;100.00
16481;BME280;44634;54.110;12.138;2022-10-31T12:11:58;102332.84;;;17.11;100.00
16481;BME280;44634;54.110;12.138;2022-10-31T12:14:34;102351.53;;;16.91;100.00
16481;BME280;44634;54.110;12.138;2022-10-31T12:17:10;102347.91;;;16.92;100.00
16481;BME280;44634;54.110;12.138;2022-10-31T12:19:59;102341.25;;;17.35;100.00
16481;BME280;44634;54.110;12.138;2022-10-31T12:22:36;102330.56;;;16.68;100.00
16481;BME280;44634;54.110;12.138;2022-10-31T12:25:28;102330.31;;;16.80;100.00
16481;BME280;44634;54.110;12.138;2022-10-31T12:28:08;102329.47;;;17.09;100.00
16481;BME280;44634;54.110;12.138;2022-10-31T12:30:52;102331.88;;;17.21;100.00
16481;BME280;44634;54.110;12.138;2022-10-31T12:33:36;102331.53;;;16.66;100.00
16481;BME280;44634;54.110;12.138;2022-10-31T12:36:24;102343.94;;;16.97;100.00
16481;BME280;44634;54.110;12.138;2022-10-31T12:39:18;102340.72;;;17.03;100.00
16481;BME280;44634;54.110;12.138;2022-10-31T12:41:52;102343.38;;;16.83;100.00
16481;BME280;44634;54.110;12.138;2022-10-31T12:44:44;102337.06;;;17.04;100.00
16481;BME280;44634;54.110;12.138;2022-10-31T12:47:32;102310.16;;;17.34;100.00
16481;BME280;44634;54.110;12.138;2022-10-31T12:50:12;102302.47;;;17.21;100.00
16481;BME280;44634;54.110;12.138;2022-10-31T12:52:54;102319.88;;;16.77;100.00
16481;BME280;44634;54.110;12.138;2022-10-31T12:55:44;102330.03;;;16.93;100.00
16481;BME280;44634;54.110;12.138;2022-10-31T12:58:21;102318.91;;;16.78;100.00